sensor_id;sensor_type;location;lat;lon;timestamp;P1;durP1;ratioP1;P2;durP2;ratioP2
14118;SDS011;7138;49.246;9.100;2023-12-29T00:00:55;4.53;;;2.22;;
14118;SDS011;7138;49.246;9.100;2023-12-29T00:03:20;4.20;;;2.05;;
14118;SDS011;7138;49.246;9.100;2023-12-29T00:05:46;4.10;;;2.10;;
14118;SDS011;7138;49.246;9.100;2023-12-29T00:08:12;7.72;;;2.50;;
14118;SDS011;7138;49.246;9.100;2023-12-29T00:10:39;4.57;;;2.45;;
14118;SDS011;7138;49.246;9.100;2023-12-29T00:13:05;3.75;;;2.20;;
14118;SDS011;7138;49.246;9.100;2023-12-29T00:15:31;6.38;;;2.83;;
14118;SDS011;7138;49.246;9.100;2023-12-29T00:17:57;3.90;;;2.58;;
14118;SDS011;7138;49.246;9.100;2023-12-29T00:20:22;6.15;;;2.95;;
14118;SDS011;7138;49.246;9.100;2023-12-29T00:22:48;4.70;;;2.80;;
14118;SDS011;7138;49.246;9.100;2023-12-29T00:25:14;5.20;;;3.10;;
14118;SDS011;7138;49.246;9.100;2023-12-29T00:27:42;6.55;;;3.80;;
14118;SDS011;7138;49.246;9.100;2023-12-29T00:30:08;5.05;;;3.15;;
14118;SDS011;7138;49.246;9.100;2023-12-29T00:32:34;6.47;;;3.30;;
14118;SDS011;7138;49.246;9.100;2023-12-29T00:35:00;7.72;;;3.58;;
14118;SDS011;7138;49.246;9.100;2023-12-29T00:37:26;4.50;;;2.95;;
14118;SDS011;7138;49.246;9.100;2023-12-29T00:39:52;5.28;;;3.10;;
14118;SDS011;7138;49.246;9.100;2023-12-29T00:42:18;6.15;;;3.50;;
14118;SDS011;7138;49.246;9.100;2023-12-29T00:44:45;6.60;;;3.60;;
14118;SDS011;7138;49.246;9.100;2023-12-29T00:47:10;4.78;;;2.95;;
14118;SDS011;7138;49.246;9.100;2023-12-29T00:49:38;7.95;;;3.40;;
14118;SDS011;7138;49.246;9.100;2023-12-29T00:52:05;7.38;;;3.53;;
14118;SDS011;7138;49.246;9.100;2023-12-29T00:54:31;8.75;;;3.28;;
14118;SDS011;7138;49.246;9.100;2023-12-29T00:56:56;5.50;;;3.38;;
14118;SDS011;7138;49.246;9.100;2023-12-29T00:59:22;7.90;;;3.50;;
14118;SDS011;7138;49.246;9.100;2023-12-29T01:01:49;5.63;;;3.50;;
14118;SDS011;7138;49.246;9.100;2023-12-29T01:04:15;5.75;;;3.53;;
14118;SDS011;7138;49.246;9.100;2023-12-29T01:06:41;5.78;;;3.47;;
14118;SDS011;7138;49.246;9.100;2023-12-29T01:09:07;6.57;;;3.55;;
14118;SDS011;7138;49.246;9.100;2023-12-29T01:11:34;6.35;;;3.70;;
14118;SDS011;7138;49.246;9.100;2023-12-29T01:14:00;6.75;;;3.15;;
14118;SDS011;7138;49.246;9.100;2023-12-29T01:16:26;7.30;;;3.63;;
14118;SDS011;7138;49.246;9.100;2023-12-29T01:18:53;7.13;;;3.90;;
14118;SDS011;7138;49.246;9.100;2023-12-29T01:21:19;7.00;;;3.55;;
14118;SDS011;7138;49.246;9.100;2023-12-29T01:23:45;6.05;;;3.80;;
14118;SDS011;7138;49.246;9.100;2023-12-29T01:26:10;6.18;;;3.40;;
14118;SDS011;7138;49.246;9.100;2023-12-29T01:28:36;6.28;;;3.30;;
14118;SDS011;7138;49.246;9.100;2023-12-29T01:31:02;7.80;;;3.80;;
14118;SDS011;7138;49.246;9.100;2023-12-29T01:33:28;6.20;;;3.92;;
14118;SDS011;7138;49.246;9.100;2023-12-29T01:35:55;5.90;;;3.30;;
14118;SDS011;7138;49.246;9.100;2023-12-29T01:38:21;5.18;;;3.33;;
14118;SDS011;7138;49.246;9.100;2023-12-29T01:40:47;6.43;;;3.72;;
14118;SDS011;7138;49.246;9.100;2023-12-29T01:43:13;5.53;;;3.72;;
14118;SDS011;7138;49.246;9.100;2023-12-29T01:45:39;6.82;;;3.63;;
14118;SDS011;7138;49.246;9.100;2023-12-29T01:48:05;7.07;;;3.58;;
14118;SDS011;7138;49.246;9.100;2023-12-29T01:50:33;6.28;;;3.42;;
14118;SDS011;7138;49.246;9.100;2023-12-29T01:53:01;5.68;;;3.50;;
14118;SDS011;7138;49.246;9.100;2023-12-29T01:55:28;7.05;;;3.78;;
14118;SDS011;7138;49.246;9.100;2023-12-29T01:57:55;5.95;;;3.58;;
14118;SDS011;7138;49.246;9.100;2023-12-29T02:00:22;5.82;;;3.85;;
14118;SDS011;7138;49.246;9.100;2023-12-29T02:02:48;5.97;;;3.90;;
14118;SDS011;7138;49.246;9.100;2023-12-29T02:05:14;5.47;;;3.60;;
14118;SDS011;7138;49.246;9.100;2023-12-29T02:07:42;6.60;;;3.50;;
14118;SDS011;7138;49.246;9.100;2023-12-29T02:10:10;6.90;;;3.70;;
14118;SDS011;7138;49.246;9.100;2023-12-29T02:12:39;6.57;;;3.70;;
14118;SDS011;7138;49.246;9.100;2023-12-29T02:15:06;6.80;;;3.63;;
14118;SDS011;7138;49.246;9.100;2023-12-29T02:17:35;5.35;;;3.55;;
14118;SDS011;7138;49.246;9.100;2023-12-29T02:20:07;7.53;;;3.80;;
14118;SDS011;7138;49.246;9.100;2023-12-29T02:22:34;6.25;;;3.55;;
14118;SDS011;7138;49.246;9.100;2023-12-29T02:25:01;6.32;;;3.22;;
14118;SDS011;7138;49.246;9.100;2023-12-29T02:27:31;5.47;;;3.53;;
14118;SDS011;7138;49.246;9.100;2023-12-29T02:30:09;8.38;;;3.58;;
14118;SDS011;7138;49.246;9.100;2023-12-29T02:32:43;6.32;;;3.90;;
14118;SDS011;7138;49.246;9.100;2023-12-29T02:35:13;6.27;;;3.57;;
14118;SDS011;7138;49.246;9.100;2023-12-29T02:37:43;5.28;;;3.58;;
14118;SDS011;7138;49.246;9.100;2023-12-29T02:40:11;5.97;;;3.97;;
14118;SDS011;7138;49.246;9.100;2023-12-29T02:42:39;3.80;;;2.55;;
14118;SDS011;7138;49.246;9.100;2023-12-29T02:45:11;6.80;;;3.85;;
14118;SDS011;7138;49.246;9.100;2023-12-29T02:47:37;5.88;;;3.40;;
14118;SDS011;7138;49.246;9.100;2023-12-29T02:50:03;6.75;;;3.92;;
14118;SDS011;7138;49.246;9.100;2023-12-29T02:52:29;8.40;;;3.90;;
14118;SDS011;7138;49.246;9.100;2023-12-29T02:54:55;6.03;;;3.88;;
14118;SDS011;7138;49.246;9.100;2023-12-29T02:57:22;6.28;;;3.65;;
14118;SDS011;7138;49.246;9.100;2023-12-29T02:59:48;6.93;;;3.90;;
14118;SDS011;7138;49.246;9.100;2023-12-29T03:02:14;6.13;;;3.80;;
14118;SDS011;7138;49.246;9.100;2023-12-29T03:04:39;6.03;;;3.50;;
14118;SDS011;7138;49.246;9.100;2023-12-29T03:07:05;6.55;;;3.45;;
14118;SDS011;7138;49.246;9.100;2023-12-29T03:09:31;4.95;;;3.20;;
14118;SDS011;7138;49.246;9.100;2023-12-29T03:11:57;7.57;;;3.95;;
14118;SDS011;7138;49.246;9.100;2023-12-29T03:14:24;6.57;;;3.67;;
14118;SDS011;7138;49.246;9.100;2023-12-29T03:16:50;8.98;;;4.00;;
14118;SDS011;7138;49.246;9.100;2023-12-29T03:19:16;7.35;;;3.20;;
14118;SDS011;7138;49.246;9.100;2023-12-29T03:21:42;6.85;;;3.17;;
14118;SDS011;7138;49.246;9.100;2023-12-29T03:24:07;5.63;;;3.35;;
14118;SDS011;7138;49.246;9.100;2023-12-29T03:26:33;7.28;;;3.80;;
14118;SDS011;7138;49.246;9.100;2023-12-29T03:28:59;5.25;;;3.22;;
14118;SDS011;7138;49.246;9.100;2023-12-29T03:31:26;6.78;;;4.00;;
14118;SDS011;7138;49.246;9.100;2023-12-29T03:33:52;5.75;;;3.13;;
14118;SDS011;7138;49.246;9.100;2023-12-29T03:36:18;5.70;;;3.45;;
14118;SDS011;7138;49.246;9.100;2023-12-29T03:38:44;5.53;;;3.10;;
14118;SDS011;7138;49.246;9.100;2023-12-29T03:41:09;9.27;;;3.88;;
14118;SDS011;7138;49.246;9.100;2023-12-29T03:43:35;5.10;;;3.15;;
14118;SDS011;7138;49.246;9.100;2023-12-29T03:46:01;6.65;;;3.08;;
14118;SDS011;7138;49.246;9.100;2023-12-29T03:48:28;5.43;;;3.33;;
14118;SDS011;7138;49.246;9.100;2023-12-29T03:50:54;4.95;;;3.28;;
14118;SDS011;7138;49.246;9.100;2023-12-29T03:53:20;5.47;;;3.50;;
14118;SDS011;7138;49.246;9.100;2023-12-29T03:55:46;7.30;;;3.22;;
14118;SDS011;7138;49.246;9.100;2023-12-29T03:58:11;6.55;;;3.63;;
14118;SDS011;7138;49.246;9.100;2023-12-29T04:00:37;6.90;;;3.25;;
14118;SDS011;7138;49.246;9.100;2023-12-29T04:03:06;5.88;;;3.15;;
14118;SDS011;7138;49.246;9.100;2023-12-29T04:05:33;6.30;;;3.42;;
14118;SDS011;7138;49.246;9.100;2023-12-29T04:07:59;6.53;;;3.13;;
14118;SDS011;7138;49.246;9.100;2023-12-29T04:10:25;5.10;;;3.10;;
14118;SDS011;7138;49.246;9.100;2023-12-29T04:12:51;5.65;;;3.28;;
14118;SDS011;7138;49.246;9.100;2023-12-29T04:15:16;6.22;;;3.40;;
14118;SDS011;7138;49.246;9.100;2023-12-29T04:17:42;4.80;;;2.92;;
14118;SDS011;7138;49.246;9.100;2023-12-29T04:20:08;5.03;;;2.85;;
14118;SDS011;7138;49.246;9.100;2023-12-29T04:22:36;4.90;;;3.08;;
14118;SDS011;7138;49.246;9.100;2023-12-29T04:25:02;5.00;;;2.88;;
14118;SDS011;7138;49.246;9.100;2023-12-29T04:27:28;7.00;;;3.10;;
14118;SDS011;7138;49.246;9.100;2023-12-29T04:29:54;4.25;;;2.45;;
14118;SDS011;7138;49.246;9.100;2023-12-29T04:32:20;5.40;;;2.60;;
14118;SDS011;7138;49.246;9.100;2023-12-29T04:34:46;5.07;;;2.65;;
14118;SDS011;7138;49.246;9.100;2023-12-29T04:37:11;5.88;;;2.25;;
14118;SDS011;7138;49.246;9.100;2023-12-29T04:39:39;4.28;;;2.60;;
14118;SDS011;7138;49.246;9.100;2023-12-29T04:42:04;4.00;;;2.15;;
14118;SDS011;7138;49.246;9.100;2023-12-29T04:44:30;4.90;;;2.35;;
14118;SDS011;7138;49.246;9.100;2023-12-29T04:46:56;3.45;;;1.88;;
14118;SDS011;7138;49.246;9.100;2023-12-29T04:49:22;5.15;;;2.55;;
14118;SDS011;7138;49.246;9.100;2023-12-29T04:51:48;4.32;;;2.00;;
14118;SDS011;7138;49.246;9.100;2023-12-29T04:54:13;5.43;;;2.42;;
14118;SDS011;7138;49.246;9.100;2023-12-29T04:56:41;4.38;;;2.30;;
14118;SDS011;7138;49.246;9.100;2023-12-29T04:59:06;4.10;;;2.20;;
14118;SDS011;7138;49.246;9.100;2023-12-29T05:01:32;4.32;;;2.40;;
14118;SDS011;7138;49.246;9.100;2023-12-29T05:03:58;3.80;;;2.45;;
14118;SDS011;7138;49.246;9.100;2023-12-29T05:06:24;4.97;;;2.45;;
14118;SDS011;7138;49.246;9.100;2023-12-29T05:08:49;3.63;;;2.20;;
14118;SDS011;7138;49.246;9.100;2023-12-29T05:11:15;4.35;;;2.20;;
14118;SDS011;7138;49.246;9.100;2023-12-29T05:13:43;4.75;;;2.00;;
14118;SDS011;7138;49.246;9.100;2023-12-29T05:16:09;4.78;;;2.50;;
14118;SDS011;7138;49.246;9.100;2023-12-29T05:18:35;5.63;;;2.75;;
14118;SDS011;7138;49.246;9.100;2023-12-29T05:21:01;3.85;;;2.00;;
14118;SDS011;7138;49.246;9.100;2023-12-29T05:23:27;3.78;;;2.22;;
14118;SDS011;7138;49.246;9.100;2023-12-29T05:25:52;3.88;;;2.40;;
14118;SDS011;7138;49.246;9.100;2023-12-29T05:28:18;3.67;;;2.10;;
14118;SDS011;7138;49.246;9.100;2023-12-29T05:30:45;4.55;;;2.33;;
14118;SDS011;7138;49.246;9.100;2023-12-29T05:33:11;5.05;;;2.38;;
14118;SDS011;7138;49.246;9.100;2023-12-29T05:35:37;4.32;;;2.45;;
14118;SDS011;7138;49.246;9.100;2023-12-29T05:38:03;6.20;;;2.47;;
14118;SDS011;7138;49.246;9.100;2023-12-29T05:40:29;4.78;;;2.70;;
14118;SDS011;7138;49.246;9.100;2023-12-29T05:42:55;3.72;;;2.30;;
14118;SDS011;7138;49.246;9.100;2023-12-29T05:45:21;4.65;;;2.58;;
14118;SDS011;7138;49.246;9.100;2023-12-29T05:47:48;4.40;;;2.30;;
14118;SDS011;7138;49.246;9.100;2023-12-29T05:50:14;4.40;;;2.40;;
14118;SDS011;7138;49.246;9.100;2023-12-29T05:52:39;8.32;;;2.85;;
14118;SDS011;7138;49.246;9.100;2023-12-29T05:55:05;4.85;;;2.47;;
14118;SDS011;7138;49.246;9.100;2023-12-29T05:57:32;5.38;;;2.58;;
14118;SDS011;7138;49.246;9.100;2023-12-29T05:59:58;5.13;;;3.08;;
14118;SDS011;7138;49.246;9.100;2023-12-29T06:02:24;4.45;;;2.72;;
14118;SDS011;7138;49.246;9.100;2023-12-29T06:04:51;4.63;;;2.80;;
14118;SDS011;7138;49.246;9.100;2023-12-29T06:07:16;5.10;;;2.50;;
14118;SDS011;7138;49.246;9.100;2023-12-29T06:09:42;4.53;;;2.63;;
14118;SDS011;7138;49.246;9.100;2023-12-29T06:12:08;3.75;;;2.30;;
14118;SDS011;7138;49.246;9.100;2023-12-29T06:14:35;4.70;;;2.97;;
14118;SDS011;7138;49.246;9.100;2023-12-29T06:17:01;4.40;;;2.80;;
14118;SDS011;7138;49.246;9.100;2023-12-29T06:19:28;4.32;;;3.05;;
14118;SDS011;7138;49.246;9.100;2023-12-29T06:21:55;4.30;;;2.45;;
14118;SDS011;7138;49.246;9.100;2023-12-29T06:24:21;4.70;;;2.45;;
14118;SDS011;7138;49.246;9.100;2023-12-29T06:26:47;4.80;;;2.20;;
14118;SDS011;7138;49.246;9.100;2023-12-29T06:29:13;5.05;;;2.50;;
14118;SDS011;7138;49.246;9.100;2023-12-29T06:31:39;3.50;;;2.45;;
14118;SDS011;7138;49.246;9.100;2023-12-29T06:34:07;5.43;;;2.60;;
14118;SDS011;7138;49.246;9.100;2023-12-29T06:36:32;5.18;;;2.95;;
14118;SDS011;7138;49.246;9.100;2023-12-29T06:38:59;5.82;;;2.70;;
14118;SDS011;7138;49.246;9.100;2023-12-29T06:41:25;4.05;;;2.50;;
14118;SDS011;7138;49.246;9.100;2023-12-29T06:43:51;5.70;;;2.83;;
14118;SDS011;7138;49.246;9.100;2023-12-29T06:46:17;4.15;;;2.35;;
14118;SDS011;7138;49.246;9.100;2023-12-29T06:48:43;4.10;;;2.08;;
14118;SDS011;7138;49.246;9.100;2023-12-29T06:51:09;5.05;;;2.70;;
14118;SDS011;7138;49.246;9.100;2023-12-29T06:53:41;4.10;;;2.40;;
14118;SDS011;7138;49.246;9.100;2023-12-29T06:56:08;4.85;;;2.35;;
14118;SDS011;7138;49.246;9.100;2023-12-29T06:58:39;5.05;;;2.20;;
14118;SDS011;7138;49.246;9.100;2023-12-29T07:01:04;3.85;;;2.20;;
14118;SDS011;7138;49.246;9.100;2023-12-29T07:03:30;5.72;;;2.50;;
14118;SDS011;7138;49.246;9.100;2023-12-29T07:05:56;4.30;;;2.47;;
14118;SDS011;7138;49.246;9.100;2023-12-29T07:08:22;3.97;;;2.30;;
14118;SDS011;7138;49.246;9.100;2023-12-29T07:10:48;5.22;;;2.55;;
14118;SDS011;7138;49.246;9.100;2023-12-29T07:13:16;4.82;;;2.53;;
14118;SDS011;7138;49.246;9.100;2023-12-29T07:15:42;4.05;;;2.20;;
14118;SDS011;7138;49.246;9.100;2023-12-29T07:18:08;3.65;;;2.13;;
14118;SDS011;7138;49.246;9.100;2023-12-29T07:20:33;5.43;;;2.05;;
14118;SDS011;7138;49.246;9.100;2023-12-29T07:22:59;4.40;;;2.55;;
14118;SDS011;7138;49.246;9.100;2023-12-29T07:25:25;4.65;;;2.30;;
14118;SDS011;7138;49.246;9.100;2023-12-29T07:27:51;4.78;;;2.50;;
14118;SDS011;7138;49.246;9.100;2023-12-29T07:30:19;5.57;;;2.70;;
14118;SDS011;7138;49.246;9.100;2023-12-29T07:32:45;4.93;;;2.55;;
14118;SDS011;7138;49.246;9.100;2023-12-29T07:35:10;6.38;;;2.75;;
14118;SDS011;7138;49.246;9.100;2023-12-29T07:37:36;4.78;;;2.63;;
14118;SDS011;7138;49.246;9.100;2023-12-29T07:40:02;3.58;;;2.10;;
14118;SDS011;7138;49.246;9.100;2023-12-29T07:42:29;4.18;;;2.50;;
14118;SDS011;7138;49.246;9.100;2023-12-29T07:44:55;5.53;;;2.58;;
14118;SDS011;7138;49.246;9.100;2023-12-29T07:47:22;4.97;;;2.80;;
14118;SDS011;7138;49.246;9.100;2023-12-29T07:49:48;4.90;;;2.28;;
14118;SDS011;7138;49.246;9.100;2023-12-29T07:52:14;4.32;;;2.55;;
14118;SDS011;7138;49.246;9.100;2023-12-29T07:54:40;5.60;;;2.30;;
14118;SDS011;7138;49.246;9.100;2023-12-29T07:57:06;4.65;;;2.63;;
14118;SDS011;7138;49.246;9.100;2023-12-29T07:59:31;5.63;;;2.60;;
14118;SDS011;7138;49.246;9.100;2023-12-29T08:01:57;4.25;;;2.22;;
14118;SDS011;7138;49.246;9.100;2023-12-29T08:04:24;4.32;;;2.55;;
14118;SDS011;7138;49.246;9.100;2023-12-29T08:06:50;4.78;;;2.35;;
14118;SDS011;7138;49.246;9.100;2023-12-29T08:09:16;4.47;;;2.58;;
14118;SDS011;7138;49.246;9.100;2023-12-29T08:11:42;4.00;;;2.63;;
14118;SDS011;7138;49.246;9.100;2023-12-29T08:14:08;5.53;;;2.80;;
14118;SDS011;7138;49.246;9.100;2023-12-29T08:16:37;4.57;;;2.90;;
14118;SDS011;7138;49.246;9.100;2023-12-29T08:19:04;4.20;;;2.20;;
14118;SDS011;7138;49.246;9.100;2023-12-29T08:21:31;4.07;;;2.50;;
14118;SDS011;7138;49.246;9.100;2023-12-29T08:23:57;5.40;;;2.70;;
14118;SDS011;7138;49.246;9.100;2023-12-29T08:26:22;6.00;;;2.78;;
14118;SDS011;7138;49.246;9.100;2023-12-29T08:28:48;4.95;;;2.95;;
14118;SDS011;7138;49.246;9.100;2023-12-29T08:31:14;4.43;;;2.58;;
14118;SDS011;7138;49.246;9.100;2023-12-29T08:33:41;5.38;;;2.80;;
14118;SDS011;7138;49.246;9.100;2023-12-29T08:36:07;6.28;;;2.72;;
14118;SDS011;7138;49.246;9.100;2023-12-29T08:38:34;4.72;;;2.65;;
14118;SDS011;7138;49.246;9.100;2023-12-29T08:41:00;6.07;;;3.00;;
14118;SDS011;7138;49.246;9.100;2023-12-29T08:43:26;4.43;;;2.58;;
14118;SDS011;7138;49.246;9.100;2023-12-29T08:45:52;4.03;;;2.60;;
14118;SDS011;7138;49.246;9.100;2023-12-29T08:48:17;5.25;;;2.70;;
14118;SDS011;7138;49.246;9.100;2023-12-29T08:50:43;4.45;;;2.33;;
14118;SDS011;7138;49.246;9.100;2023-12-29T08:53:09;5.13;;;2.65;;
14118;SDS011;7138;49.246;9.100;2023-12-29T08:55:36;4.85;;;2.38;;
14118;SDS011;7138;49.246;9.100;2023-12-29T08:58:02;5.22;;;2.45;;
14118;SDS011;7138;49.246;9.100;2023-12-29T09:00:28;6.18;;;2.22;;
14118;SDS011;7138;49.246;9.100;2023-12-29T09:02:55;5.32;;;2.45;;
14118;SDS011;7138;49.246;9.100;2023-12-29T09:05:21;6.20;;;2.75;;
14118;SDS011;7138;49.246;9.100;2023-12-29T09:07:47;4.72;;;2.20;;
14118;SDS011;7138;49.246;9.100;2023-12-29T09:10:13;5.35;;;2.40;;
14118;SDS011;7138;49.246;9.100;2023-12-29T09:12:41;4.30;;;2.15;;
14118;SDS011;7138;49.246;9.100;2023-12-29T09:15:07;5.03;;;2.20;;
14118;SDS011;7138;49.246;9.100;2023-12-29T09:17:33;4.32;;;2.13;;
14118;SDS011;7138;49.246;9.100;2023-12-29T09:19:59;4.30;;;2.08;;
14118;SDS011;7138;49.246;9.100;2023-12-29T09:22:25;4.40;;;2.30;;
14118;SDS011;7138;49.246;9.100;2023-12-29T09:24:51;3.85;;;2.10;;
14118;SDS011;7138;49.246;9.100;2023-12-29T09:27:19;3.67;;;2.05;;
14118;SDS011;7138;49.246;9.100;2023-12-29T09:29:47;3.30;;;1.77;;
14118;SDS011;7138;49.246;9.100;2023-12-29T09:32:12;3.53;;;1.92;;
14118;SDS011;7138;49.246;9.100;2023-12-29T09:34:38;3.78;;;1.83;;
14118;SDS011;7138;49.246;9.100;2023-12-29T09:37:04;5.35;;;1.63;;
14118;SDS011;7138;49.246;9.100;2023-12-29T09:39:30;4.10;;;1.65;;
14118;SDS011;7138;49.246;9.100;2023-12-29T09:41:57;3.10;;;1.50;;
14118;SDS011;7138;49.246;9.100;2023-12-29T09:44:27;3.63;;;1.58;;
14118;SDS011;7138;49.246;9.100;2023-12-29T09:46:55;3.33;;;1.67;;
14118;SDS011;7138;49.246;9.100;2023-12-29T09:49:27;4.00;;;2.08;;
14118;SDS011;7138;49.246;9.100;2023-12-29T09:52:04;5.05;;;2.03;;
14118;SDS011;7138;49.246;9.100;2023-12-29T09:54:32;5.15;;;2.30;;
14118;SDS011;7138;49.246;9.100;2023-12-29T09:57:01;3.47;;;1.73;;
14118;SDS011;7138;49.246;9.100;2023-12-29T09:59:29;3.55;;;1.60;;
14118;SDS011;7138;49.246;9.100;2023-12-29T10:01:58;4.03;;;2.05;;
14118;SDS011;7138;49.246;9.100;2023-12-29T10:04:25;4.03;;;1.80;;
14118;SDS011;7138;49.246;9.100;2023-12-29T10:06:51;4.22;;;1.85;;
14118;SDS011;7138;49.246;9.100;2023-12-29T10:09:21;3.33;;;1.63;;
14118;SDS011;7138;49.246;9.100;2023-12-29T10:11:50;3.42;;;1.95;;
14118;SDS011;7138;49.246;9.100;2023-12-29T10:14:19;3.63;;;1.90;;
14118;SDS011;7138;49.246;9.100;2023-12-29T10:16:52;5.68;;;2.03;;
14118;SDS011;7138;49.246;9.100;2023-12-29T10:19:30;4.57;;;1.95;;
14118;SDS011;7138;49.246;9.100;2023-12-29T10:22:06;4.85;;;1.77;;
14118;SDS011;7138;49.246;9.100;2023-12-29T10:24:38;3.42;;;1.60;;
14118;SDS011;7138;49.246;9.100;2023-12-29T10:27:07;3.20;;;1.60;;
14118;SDS011;7138;49.246;9.100;2023-12-29T10:29:33;5.40;;;1.27;;
14118;SDS011;7138;49.246;9.100;2023-12-29T10:32:00;2.83;;;1.30;;
14118;SDS011;7138;49.246;9.100;2023-12-29T10:34:26;2.95;;;1.33;;
14118;SDS011;7138;49.246;9.100;2023-12-29T10:39:23;2.92;;;1.00;;
14118;SDS011;7138;49.246;9.100;2023-12-29T10:41:49;2.50;;;1.08;;
14118;SDS011;7138;49.246;9.100;2023-12-29T10:44:27;2.90;;;0.90;;
14118;SDS011;7138;49.246;9.100;2023-12-29T10:46:52;3.30;;;1.08;;
14118;SDS011;7138;49.246;9.100;2023-12-29T10:49:19;2.40;;;1.00;;
14118;SDS011;7138;49.246;9.100;2023-12-29T10:51:45;2.88;;;1.10;;
14118;SDS011;7138;49.246;9.100;2023-12-29T10:54:16;2.38;;;1.00;;
14118;SDS011;7138;49.246;9.100;2023-12-29T10:56:57;2.97;;;1.20;;
14118;SDS011;7138;49.246;9.100;2023-12-29T10:59:27;2.33;;;0.97;;
14118;SDS011;7138;49.246;9.100;2023-12-29T11:01:53;2.40;;;1.00;;
14118;SDS011;7138;49.246;9.100;2023-12-29T11:04:22;2.10;;;0.80;;
14118;SDS011;7138;49.246;9.100;2023-12-29T11:06:48;2.75;;;1.00;;
14118;SDS011;7138;49.246;9.100;2023-12-29T11:09:19;2.58;;;1.00;;
14118;SDS011;7138;49.246;9.100;2023-12-29T11:11:54;2.30;;;0.95;;
14118;SDS011;7138;49.246;9.100;2023-12-29T11:14:22;2.45;;;0.88;;
14118;SDS011;7138;49.246;9.100;2023-12-29T11:16:49;2.47;;;0.90;;
14118;SDS011;7138;49.246;9.100;2023-12-29T11:19:17;2.30;;;0.85;;
14118;SDS011;7138;49.246;9.100;2023-12-29T11:21:45;2.17;;;0.95;;
14118;SDS011;7138;49.246;9.100;2023-12-29T11:24:13;2.20;;;0.85;;
14118;SDS011;7138;49.246;9.100;2023-12-29T11:26:39;3.00;;;0.70;;
14118;SDS011;7138;49.246;9.100;2023-12-29T11:29:08;1.95;;;0.85;;
14118;SDS011;7138;49.246;9.100;2023-12-29T11:31:36;2.65;;;0.80;;
14118;SDS011;7138;49.246;9.100;2023-12-29T11:34:03;2.15;;;1.00;;
14118;SDS011;7138;49.246;9.100;2023-12-29T11:36:37;5.75;;;1.00;;
14118;SDS011;7138;49.246;9.100;2023-12-29T11:39:14;3.65;;;0.80;;
14118;SDS011;7138;49.246;9.100;2023-12-29T11:41:51;2.20;;;0.90;;
14118;SDS011;7138;49.246;9.100;2023-12-29T11:44:27;2.00;;;0.90;;
14118;SDS011;7138;49.246;9.100;2023-12-29T11:46:53;2.40;;;1.00;;
14118;SDS011;7138;49.246;9.100;2023-12-29T11:49:22;2.17;;;0.93;;
14118;SDS011;7138;49.246;9.100;2023-12-29T11:51:48;2.40;;;0.90;;
14118;SDS011;7138;49.246;9.100;2023-12-29T11:54:22;1.92;;;0.90;;
14118;SDS011;7138;49.246;9.100;2023-12-29T11:56:49;2.10;;;0.90;;
14118;SDS011;7138;49.246;9.100;2023-12-29T11:59:16;2.38;;;0.70;;
14118;SDS011;7138;49.246;9.100;2023-12-29T12:01:46;2.50;;;0.95;;
14118;SDS011;7138;49.246;9.100;2023-12-29T12:07:13;2.20;;;0.95;;
14118;SDS011;7138;49.246;9.100;2023-12-29T12:09:43;2.53;;;0.82;;
14118;SDS011;7138;49.246;9.100;2023-12-29T12:12:09;2.47;;;0.80;;
14118;SDS011;7138;49.246;9.100;2023-12-29T12:14:43;2.10;;;0.90;;
14118;SDS011;7138;49.246;9.100;2023-12-29T12:17:28;2.30;;;1.00;;
14118;SDS011;7138;49.246;9.100;2023-12-29T12:19:56;3.10;;;1.17;;
14118;SDS011;7138;49.246;9.100;2023-12-29T12:22:24;2.00;;;0.90;;
14118;SDS011;7138;49.246;9.100;2023-12-29T12:24:57;3.45;;;1.58;;
14118;SDS011;7138;49.246;9.100;2023-12-29T12:27:23;2.70;;;1.10;;
14118;SDS011;7138;49.246;9.100;2023-12-29T12:29:52;2.28;;;1.10;;
14118;SDS011;7138;49.246;9.100;2023-12-29T12:32:21;4.28;;;1.15;;
14118;SDS011;7138;49.246;9.100;2023-12-29T12:34:47;2.80;;;1.08;;
14118;SDS011;7138;49.246;9.100;2023-12-29T12:37:18;2.35;;;0.93;;
14118;SDS011;7138;49.246;9.100;2023-12-29T12:39:44;3.17;;;1.17;;
14118;SDS011;7138;49.246;9.100;2023-12-29T12:42:12;3.15;;;1.05;;
14118;SDS011;7138;49.246;9.100;2023-12-29T12:44:39;2.08;;;0.90;;
14118;SDS011;7138;49.246;9.100;2023-12-29T12:47:14;3.45;;;1.00;;
14118;SDS011;7138;49.246;9.100;2023-12-29T12:49:49;2.45;;;0.90;;
14118;SDS011;7138;49.246;9.100;2023-12-29T12:52:15;2.50;;;1.05;;
14118;SDS011;7138;49.246;9.100;2023-12-29T12:54:42;3.25;;;1.00;;
14118;SDS011;7138;49.246;9.100;2023-12-29T12:57:08;3.55;;;1.10;;
14118;SDS011;7138;49.246;9.100;2023-12-29T12:59:35;2.30;;;1.10;;
14118;SDS011;7138;49.246;9.100;2023-12-29T13:02:01;2.05;;;0.80;;
14118;SDS011;7138;49.246;9.100;2023-12-29T13:04:30;3.05;;;1.02;;
14118;SDS011;7138;49.246;9.100;2023-12-29T13:06:57;3.85;;;1.80;;
14118;SDS011;7138;49.246;9.100;2023-12-29T13:09:22;3.38;;;1.58;;
14118;SDS011;7138;49.246;9.100;2023-12-29T13:11:48;3.53;;;1.27;;
14118;SDS011;7138;49.246;9.100;2023-12-29T13:14:20;3.10;;;1.23;;
14118;SDS011;7138;49.246;9.100;2023-12-29T13:16:48;2.88;;;1.15;;
14118;SDS011;7138;49.246;9.100;2023-12-29T13:19:15;3.15;;;1.25;;
14118;SDS011;7138;49.246;9.100;2023-12-29T13:21:46;2.50;;;0.90;;
14118;SDS011;7138;49.246;9.100;2023-12-29T13:24:13;2.53;;;1.20;;
14118;SDS011;7138;49.246;9.100;2023-12-29T13:26:41;2.80;;;1.20;;
14118;SDS011;7138;49.246;9.100;2023-12-29T13:29:12;2.53;;;1.02;;
14118;SDS011;7138;49.246;9.100;2023-12-29T13:31:39;2.95;;;1.10;;
14118;SDS011;7138;49.246;9.100;2023-12-29T13:34:11;2.88;;;1.27;;
14118;SDS011;7138;49.246;9.100;2023-12-29T13:36:43;3.00;;;1.20;;
14118;SDS011;7138;49.246;9.100;2023-12-29T13:39:21;3.58;;;1.10;;
14118;SDS011;7138;49.246;9.100;2023-12-29T13:41:54;2.80;;;1.20;;
14118;SDS011;7138;49.246;9.100;2023-12-29T13:44:24;4.32;;;1.40;;
14118;SDS011;7138;49.246;9.100;2023-12-29T13:46:52;2.67;;;1.15;;
14118;SDS011;7138;49.246;9.100;2023-12-29T13:49:21;4.80;;;1.17;;
14118;SDS011;7138;49.246;9.100;2023-12-29T13:51:47;3.10;;;1.30;;
14118;SDS011;7138;49.246;9.100;2023-12-29T13:54:13;2.30;;;1.17;;
14118;SDS011;7138;49.246;9.100;2023-12-29T13:56:50;2.58;;;1.10;;
14118;SDS011;7138;49.246;9.100;2023-12-29T13:59:17;3.25;;;1.33;;
14118;SDS011;7138;49.246;9.100;2023-12-29T14:01:43;2.67;;;1.20;;
14118;SDS011;7138;49.246;9.100;2023-12-29T14:04:10;4.13;;;1.30;;
14118;SDS011;7138;49.246;9.100;2023-12-29T14:06:40;3.97;;;1.48;;
14118;SDS011;7138;49.246;9.100;2023-12-29T14:09:16;2.83;;;1.10;;
14118;SDS011;7138;49.246;9.100;2023-12-29T14:11:46;2.95;;;1.38;;
14118;SDS011;7138;49.246;9.100;2023-12-29T14:14:12;4.15;;;1.63;;
14118;SDS011;7138;49.246;9.100;2023-12-29T14:16:38;3.28;;;1.20;;
14118;SDS011;7138;49.246;9.100;2023-12-29T14:19:04;3.33;;;1.30;;
14118;SDS011;7138;49.246;9.100;2023-12-29T14:21:31;2.70;;;1.13;;
14118;SDS011;7138;49.246;9.100;2023-12-29T14:24:01;3.25;;;1.20;;
14118;SDS011;7138;49.246;9.100;2023-12-29T14:26:33;2.30;;;1.00;;
14118;SDS011;7138;49.246;9.100;2023-12-29T14:29:02;2.60;;;1.27;;
14118;SDS011;7138;49.246;9.100;2023-12-29T14:31:31;2.78;;;1.00;;
14118;SDS011;7138;49.246;9.100;2023-12-29T14:34:00;3.65;;;1.10;;
14118;SDS011;7138;49.246;9.100;2023-12-29T14:36:26;2.78;;;1.20;;
14118;SDS011;7138;49.246;9.100;2023-12-29T14:38:53;2.97;;;1.23;;
14118;SDS011;7138;49.246;9.100;2023-12-29T14:41:21;3.05;;;1.20;;
14118;SDS011;7138;49.246;9.100;2023-12-29T14:43:46;2.47;;;1.02;;
14118;SDS011;7138;49.246;9.100;2023-12-29T14:46:12;2.65;;;1.10;;
14118;SDS011;7138;49.246;9.100;2023-12-29T14:48:38;2.75;;;1.33;;
14118;SDS011;7138;49.246;9.100;2023-12-29T14:51:04;3.28;;;1.30;;
14118;SDS011;7138;49.246;9.100;2023-12-29T14:53:30;3.25;;;1.20;;
14118;SDS011;7138;49.246;9.100;2023-12-29T14:55:56;2.90;;;1.30;;
14118;SDS011;7138;49.246;9.100;2023-12-29T14:58:23;3.50;;;1.50;;
14118;SDS011;7138;49.246;9.100;2023-12-29T15:00:48;3.20;;;1.17;;
14118;SDS011;7138;49.246;9.100;2023-12-29T15:03:14;3.65;;;1.50;;
14118;SDS011;7138;49.246;9.100;2023-12-29T15:05:40;2.60;;;1.27;;